createdAt,value
2019-01-14T00:02:07.530Z,7.05
2019-01-14T00:04:38.118Z,7.04
2019-01-14T00:07:08.743Z,7.04
2019-01-14T00:09:39.227Z,7.03
2019-01-14T00:12:09.762Z,7.00
2019-01-14T00:14:40.314Z,6.99
2019-01-14T00:17:10.932Z,6.98
2019-01-14T00:19:41.536Z,6.95
2019-01-14T00:22:12.081Z,6.93
2019-01-14T00:24:42.615Z,6.90
2019-01-14T00:27:13.127Z,6.90
2019-01-14T00:29:43.713Z,6.89
2019-01-14T00:32:14.236Z,6.88
2019-01-14T00:34:44.759Z,6.86
2019-01-14T00:37:15.260Z,6.88
2019-01-14T00:39:45.794Z,6.86
2019-01-14T00:42:16.825Z,6.83
2019-01-14T00:44:47.324Z,6.83
2019-01-14T00:47:17.849Z,6.81
2019-01-14T00:49:48.354Z,6.78
2019-01-14T00:52:18.901Z,6.77
2019-01-14T00:54:49.448Z,6.75
2019-01-14T00:57:19.964Z,6.70
2019-01-14T00:59:53.490Z,6.67
2019-01-14T01:02:24.082Z,6.70
2019-01-14T01:04:54.656Z,6.71
2019-01-14T01:07:25.144Z,6.71
2019-01-14T01:09:55.647Z,6.70
2019-01-14T01:12:26.244Z,6.72
2019-01-14T01:14:56.791Z,6.70
2019-01-14T01:17:27.347Z,6.69
2019-01-14T01:19:59.542Z,6.71
2019-01-14T01:22:30.063Z,6.70
2019-01-14T01:25:00.626Z,6.68
2019-01-14T01:27:31.126Z,6.68
2019-01-14T01:30:01.686Z,6.70
2019-01-14T01:32:32.162Z,6.70
2019-01-14T01:35:03.330Z,6.71
2019-01-14T01:37:33.865Z,6.70
2019-01-14T01:40:05.281Z,6.64
2019-01-14T01:42:35.805Z,6.63
2019-01-14T01:45:07.290Z,6.67
2019-01-14T01:47:38.010Z,6.64
2019-01-14T01:50:10.740Z,6.59
2019-01-14T01:52:43.067Z,6.60
2019-01-14T01:55:13.954Z,6.54
2019-01-14T01:57:44.615Z,6.49
2019-01-14T02:00:21.036Z,6.49
2019-01-14T02:02:51.873Z,6.48
2019-01-14T02:05:25.180Z,6.48
2019-01-14T02:07:55.688Z,6.50
2019-01-14T02:10:26.177Z,6.48
2019-01-14T02:12:59.611Z,6.49
2019-01-14T02:15:30.183Z,6.48
2019-01-14T02:18:00.733Z,6.50
2019-01-14T02:20:31.281Z,6.49
2019-01-14T02:23:01.773Z,6.49
2019-01-14T02:25:32.325Z,6.45
2019-01-14T02:28:02.815Z,6.45
2019-01-14T02:30:33.333Z,6.49
2019-01-14T02:33:03.863Z,6.51
2019-01-14T02:35:34.421Z,6.48
2019-01-14T02:38:04.964Z,6.44
2019-01-14T02:40:35.479Z,6.44
2019-01-14T02:43:06.015Z,6.40
2019-01-14T02:45:36.601Z,6.41
2019-01-14T02:48:07.112Z,6.40
2019-01-14T02:50:37.674Z,6.39
2019-01-14T02:53:08.212Z,6.39
2019-01-14T02:55:38.731Z,6.46
2019-01-14T02:58:09.318Z,6.43
2019-01-14T03:00:39.837Z,6.44
2019-01-14T03:03:10.468Z,6.45
2019-01-14T03:05:40.976Z,6.43
2019-01-14T03:08:11.550Z,6.43
2019-01-14T03:10:42.055Z,6.44
2019-01-14T03:13:12.599Z,6.44
2019-01-14T03:15:43.159Z,6.45
2019-01-14T03:18:13.662Z,6.41
2019-01-14T03:20:44.226Z,6.44
2019-01-14T03:23:14.699Z,6.39
2019-01-14T03:25:45.312Z,6.41
2019-01-14T03:28:15.824Z,6.41
2019-01-14T03:30:46.333Z,6.39
2019-01-14T03:33:16.915Z,6.38
2019-01-14T03:35:47.461Z,6.35
2019-01-14T03:38:18.026Z,6.28
2019-01-14T03:40:48.542Z,6.32
2019-01-14T03:43:20.346Z,6.34
2019-01-14T03:45:50.957Z,6.34
2019-01-14T03:48:21.527Z,6.34
2019-01-14T03:50:52.378Z,6.32
2019-01-14T03:53:22.948Z,6.33
2019-01-14T03:55:53.514Z,6.32
2019-01-14T03:58:24.080Z,6.34
2019-01-14T04:00:54.611Z,6.36
2019-01-14T04:03:27.132Z,6.37
2019-01-14T04:05:57.336Z,6.37
2019-01-14T04:08:27.843Z,6.38
2019-01-14T04:10:58.362Z,6.41
2019-01-14T04:13:28.911Z,6.41
2019-01-14T04:15:59.451Z,6.39
2019-01-14T04:18:29.955Z,6.38
2019-01-14T04:21:00.516Z,6.40
2019-01-14T04:23:31.038Z,6.43
2019-01-14T04:26:01.567Z,6.43
2019-01-14T04:28:32.084Z,6.39
2019-01-14T04:31:02.608Z,6.41
2019-01-14T04:33:33.182Z,6.44
2019-01-14T04:36:03.681Z,6.44
2019-01-14T04:38:34.595Z,6.43
2019-01-14T04:41:05.104Z,6.40
2019-01-14T04:43:35.771Z,6.44
2019-01-14T04:46:06.285Z,6.47
2019-01-14T04:48:36.790Z,6.42
2019-01-14T04:51:07.370Z,6.38
2019-01-14T04:53:40.919Z,6.34
2019-01-14T04:56:11.459Z,6.34
2019-01-14T04:58:41.961Z,6.37
2019-01-14T05:01:12.548Z,6.32
2019-01-14T05:03:44.709Z,6.32
2019-01-14T05:06:15.348Z,6.30
2019-01-14T05:08:45.840Z,6.31
2019-01-14T05:11:16.433Z,6.28
2019-01-14T05:13:46.992Z,6.27
2019-01-14T05:16:17.534Z,6.29
2019-01-14T05:18:48.091Z,6.32
2019-01-14T05:21:18.641Z,6.33
2019-01-14T05:23:49.151Z,6.34
2019-01-14T05:26:19.733Z,6.33
2019-01-14T05:28:50.257Z,6.35
2019-01-14T05:31:20.822Z,6.37
2019-01-14T05:33:51.334Z,6.37
2019-01-14T05:36:21.907Z,6.40
2019-01-14T05:38:52.495Z,6.37
2019-01-14T05:41:23.021Z,6.38
2019-01-14T05:43:53.600Z,6.41
2019-01-14T05:46:24.109Z,6.34
2019-01-14T05:48:54.649Z,6.38
2019-01-14T05:51:25.227Z,6.34
2019-01-14T05:53:55.712Z,6.33
2019-01-14T05:56:26.243Z,6.31
2019-01-14T05:58:56.786Z,6.31
2019-01-14T06:01:27.485Z,6.32
2019-01-14T06:03:58.033Z,6.31
2019-01-14T06:06:28.565Z,6.32
2019-01-14T06:08:59.089Z,6.29
2019-01-14T06:11:29.593Z,6.24
2019-01-14T06:14:00.235Z,6.24
2019-01-14T06:16:30.803Z,6.21
2019-01-14T06:19:01.376Z,6.17
2019-01-14T06:21:31.896Z,6.13
2019-01-14T06:24:02.402Z,6.13
2019-01-14T06:26:32.971Z,6.08
2019-01-14T06:29:03.486Z,6.08
2019-01-14T06:31:34.039Z,6.10
2019-01-14T06:34:04.797Z,6.07
2019-01-14T06:36:35.326Z,6.10
2019-01-14T06:39:10.088Z,6.08
2019-01-14T06:41:40.640Z,6.04
2019-01-14T06:44:11.157Z,6.05
2019-01-14T06:46:41.731Z,6.04
2019-01-14T06:49:12.275Z,6.05
2019-01-14T06:51:42.798Z,6.05
2019-01-14T06:54:13.329Z,6.06
2019-01-14T06:56:43.865Z,6.07
2019-01-14T06:59:14.474Z,6.06
2019-01-14T07:01:45.063Z,6.11
2019-01-14T07:04:15.589Z,6.10
2019-01-14T07:06:46.157Z,6.13
2019-01-14T07:09:20.776Z,6.12
2019-01-14T07:11:52.194Z,6.15
2019-01-14T07:14:22.711Z,6.16
2019-01-14T07:16:53.268Z,6.18
2019-01-14T07:19:24.800Z,6.16
2019-01-14T07:21:55.354Z,6.14
2019-01-14T07:24:25.890Z,6.12
2019-01-14T07:26:56.468Z,6.15
2019-01-14T07:29:27.305Z,6.13
2019-01-14T07:31:57.833Z,6.11
2019-01-14T07:34:28.380Z,6.16
2019-01-14T07:36:58.925Z,6.15
2019-01-14T07:39:29.503Z,6.15
2019-01-14T07:42:00.013Z,6.12
2019-01-14T07:44:30.540Z,6.14
2019-01-14T07:47:01.119Z,6.17
2019-01-14T07:49:31.608Z,6.13
2019-01-14T07:52:02.131Z,6.10
2019-01-14T07:54:32.683Z,6.16
2019-01-14T07:57:03.228Z,6.15
2019-01-14T07:59:33.778Z,6.15
2019-01-14T08:02:04.376Z,6.18
2019-01-14T08:04:34.938Z,6.20
2019-01-14T08:07:05.615Z,6.16
2019-01-14T08:09:36.142Z,6.18
2019-01-14T08:12:06.736Z,6.16
2019-01-14T08:14:37.244Z,6.14
2019-01-14T08:17:07.798Z,6.13
2019-01-14T08:19:38.358Z,6.08
2019-01-14T08:22:08.906Z,6.08
2019-01-14T08:24:39.476Z,6.05
2019-01-14T08:27:10.088Z,6.05
2019-01-14T08:29:40.684Z,6.02
2019-01-14T08:32:12.209Z,5.97
2019-01-14T08:34:42.771Z,6.02
2019-01-14T08:37:13.309Z,5.99
2019-01-14T08:39:43.800Z,5.97
2019-01-14T08:42:15.366Z,5.94
2019-01-14T08:44:50.267Z,5.94
2019-01-14T08:47:20.914Z,5.96
2019-01-14T08:49:51.437Z,5.94
2019-01-14T08:52:22.066Z,5.94
2019-01-14T08:54:52.565Z,5.95
2019-01-14T08:57:23.745Z,5.95
2019-01-14T08:59:54.278Z,5.98
2019-01-14T09:02:24.814Z,6.03
2019-01-14T09:04:55.396Z,6.03
2019-01-14T09:07:26.011Z,6.05
2019-01-14T09:09:56.571Z,6.06
2019-01-14T09:12:27.141Z,6.11
2019-01-14T09:14:57.662Z,6.13
2019-01-14T09:17:28.216Z,6.21
2019-01-14T09:19:58.723Z,6.22
2019-01-14T09:22:29.297Z,6.24
2019-01-14T09:24:59.851Z,6.25
2019-01-14T09:27:30.399Z,6.29
2019-01-14T09:30:02.224Z,6.30
2019-01-14T09:32:32.798Z,6.31
2019-01-14T09:35:03.281Z,6.35
2019-01-14T09:37:33.826Z,6.36
2019-01-14T09:40:05.504Z,6.38
2019-01-14T09:42:36.038Z,6.39
2019-01-14T09:45:07.479Z,6.43
2019-01-14T09:47:38.021Z,6.40
2019-01-14T09:50:10.771Z,6.40
2019-01-14T09:52:41.441Z,6.42
2019-01-14T09:55:15.027Z,6.47
2019-01-14T09:57:45.690Z,6.51
2019-01-14T10:00:16.972Z,6.55
2019-01-14T10:02:47.852Z,6.54
2019-01-14T10:05:20.153Z,6.57
2019-01-14T10:07:50.692Z,6.55
2019-01-14T10:10:21.927Z,6.52
2019-01-14T10:12:52.665Z,6.51
2019-01-14T10:15:25.600Z,6.58
2019-01-14T10:17:58.739Z,6.56
2019-01-14T10:20:29.246Z,6.54
2019-01-14T10:22:59.822Z,6.54
2019-01-14T10:25:30.572Z,6.56
2019-01-14T10:28:01.369Z,6.58
2019-01-14T10:30:32.133Z,6.53
2019-01-14T10:33:02.665Z,6.59
2019-01-14T10:35:33.216Z,6.64
2019-01-14T10:38:05.843Z,6.67
2019-01-14T10:40:36.415Z,6.64
2019-01-14T10:43:07.071Z,6.64
2019-01-14T10:45:37.599Z,6.66
2019-01-14T10:48:08.277Z,6.62
2019-01-14T10:50:38.804Z,6.58
2019-01-14T10:53:12.145Z,6.59
2019-01-14T10:55:42.652Z,6.63
2019-01-14T10:58:16.184Z,6.66
2019-01-14T11:00:48.381Z,6.75
2019-01-14T11:03:18.937Z,6.81
2019-01-14T11:05:49.468Z,6.89
2019-01-14T11:08:20.016Z,6.86
2019-01-14T11:10:50.546Z,6.90
2019-01-14T11:13:21.114Z,6.88
2019-01-14T11:15:51.614Z,6.87
2019-01-14T11:18:22.168Z,6.83
2019-01-14T11:20:59.871Z,6.81
2019-01-14T11:23:37.218Z,6.87
2019-01-14T11:26:12.625Z,6.85
2019-01-14T11:28:43.132Z,6.84
2019-01-14T11:31:13.701Z,6.86
2019-01-14T11:33:44.242Z,6.91
2019-01-14T11:36:14.847Z,7.00
2019-01-14T11:38:51.185Z,6.99
2019-01-14T11:41:26.071Z,7.00
2019-01-14T11:43:56.602Z,7.00
2019-01-14T11:46:27.174Z,6.96
2019-01-14T11:48:57.805Z,6.98
2019-01-14T11:51:28.278Z,6.96
2019-01-14T11:53:58.769Z,6.77
2019-01-14T11:56:29.336Z,5.86
2019-01-14T11:58:59.975Z,5.53
2019-01-14T12:01:30.530Z,5.24
2019-01-14T12:04:01.067Z,5.13
2019-01-14T12:06:31.609Z,5.15
2019-01-14T12:09:02.185Z,5.16
2019-01-14T12:11:32.777Z,5.24
2019-01-14T12:14:03.398Z,5.25
2019-01-14T12:16:33.957Z,5.19
2019-01-14T12:19:05.306Z,5.18
2019-01-14T12:21:37.022Z,5.18
2019-01-14T12:24:07.559Z,5.15
2019-01-14T12:26:38.072Z,5.18
2019-01-14T12:29:08.632Z,5.20
2019-01-14T12:31:39.192Z,5.22
2019-01-14T12:34:09.738Z,5.22
2019-01-14T12:36:40.259Z,5.24
2019-01-14T12:39:11.749Z,5.23
2019-01-14T12:41:42.232Z,5.22
2019-01-14T12:44:12.900Z,5.24
2019-01-14T12:46:43.408Z,5.28
2019-01-14T12:49:14.007Z,5.25
2019-01-14T12:51:44.539Z,5.31
2019-01-14T12:54:15.036Z,5.34
2019-01-14T12:56:45.605Z,5.23
2019-01-14T12:59:16.151Z,5.30
2019-01-14T13:01:46.716Z,5.34
2019-01-14T13:04:17.281Z,5.40
2019-01-14T13:06:47.777Z,5.33
2019-01-14T13:09:26.661Z,5.39
2019-01-14T13:11:52.947Z,5.32
2019-01-14T13:14:23.543Z,5.38
2019-01-14T13:16:54.088Z,5.39
2019-01-14T13:19:24.648Z,5.37
2019-01-14T13:21:55.125Z,5.21
2019-01-14T13:24:28.726Z,5.18
2019-01-14T13:27:00.823Z,5.19
2019-01-14T13:29:31.357Z,5.23
2019-01-14T13:32:01.881Z,5.22
2019-01-14T13:34:32.393Z,5.18
2019-01-14T13:37:02.953Z,5.20
2019-01-14T13:39:34.184Z,5.22
2019-01-14T13:42:05.007Z,5.20
2019-01-14T13:44:35.552Z,5.16
2019-01-14T13:47:06.090Z,5.19
2019-01-14T13:49:36.684Z,5.18
2019-01-14T13:52:07.200Z,5.10
2019-01-14T13:54:37.897Z,5.10
2019-01-14T13:57:08.397Z,5.11
2019-01-14T13:59:39.005Z,5.14
2019-01-14T14:02:10.870Z,5.13
2019-01-14T14:04:41.438Z,5.17
2019-01-14T14:07:12.208Z,5.15
2019-01-14T14:09:42.783Z,5.17
2019-01-14T14:12:14.853Z,5.17
2019-01-14T14:14:45.461Z,5.18
2019-01-14T14:17:16.004Z,5.20
2019-01-14T14:19:46.587Z,5.19
2019-01-14T14:22:17.092Z,5.17
2019-01-14T14:24:47.705Z,5.20
2019-01-14T14:27:18.251Z,5.20
2019-01-14T14:29:48.792Z,5.20
2019-01-14T14:32:19.337Z,5.18
2019-01-14T14:34:49.906Z,5.20
2019-01-14T14:37:20.444Z,5.22
2019-01-14T14:39:51.087Z,5.22
2019-01-14T14:42:21.602Z,5.23
2019-01-14T14:44:53.648Z,5.19
2019-01-14T14:47:24.197Z,5.18
2019-01-14T14:49:54.795Z,5.17
2019-01-14T14:52:25.317Z,5.13
2019-01-14T14:54:55.890Z,5.14
2019-01-14T14:57:26.402Z,5.13
2019-01-14T14:59:56.918Z,5.17
2019-01-14T15:02:27.477Z,5.14
2019-01-14T15:04:58.080Z,5.14
2019-01-14T15:07:28.638Z,5.15
2019-01-14T15:10:00.620Z,5.16
2019-01-14T15:12:31.149Z,5.18
2019-01-14T15:15:01.809Z,5.20
2019-01-14T15:17:32.336Z,5.23
2019-01-14T15:20:07.609Z,5.26
2019-01-14T15:22:38.189Z,5.29
2019-01-14T15:25:08.727Z,5.29
2019-01-14T15:27:39.503Z,5.36
2019-01-14T15:30:26.889Z,5.39
2019-01-14T15:32:57.460Z,5.46
2019-01-14T15:35:28.175Z,5.46
2019-01-14T15:37:58.686Z,5.48
2019-01-14T15:40:30.489Z,5.46
2019-01-14T15:43:01.009Z,5.40
2019-01-14T15:45:31.573Z,5.37
2019-01-14T15:48:02.110Z,5.32
2019-01-14T15:50:32.678Z,5.30
2019-01-14T15:53:03.244Z,5.23
2019-01-14T15:55:33.753Z,5.24
2019-01-14T15:58:05.048Z,5.20
2019-01-14T16:00:35.678Z,5.18
2019-01-14T16:03:06.241Z,5.13
2019-01-14T16:05:36.874Z,5.12
2019-01-14T16:08:07.424Z,5.13
2019-01-14T16:10:38.009Z,5.11
2019-01-14T16:13:08.599Z,5.10
2019-01-14T16:15:39.184Z,5.00
2019-01-14T16:18:09.678Z,4.98
2019-01-14T16:20:40.271Z,4.97
2019-01-14T16:23:13.063Z,4.89
2019-01-14T16:25:43.599Z,4.84
2019-01-14T16:28:14.224Z,4.76
2019-01-14T16:30:44.881Z,4.73
2019-01-14T16:33:15.371Z,4.74
2019-01-14T16:35:46.118Z,4.75
2019-01-14T16:38:16.610Z,4.74
2019-01-14T16:40:47.215Z,4.74
2019-01-14T16:43:17.795Z,4.70
2019-01-14T16:45:48.977Z,4.73
2019-01-14T16:48:19.630Z,4.70
2019-01-14T16:50:50.216Z,4.70
2019-01-14T16:53:20.765Z,4.66
2019-01-14T16:55:55.122Z,4.58
2019-01-14T16:58:25.710Z,4.55
2019-01-14T17:00:56.261Z,4.51
2019-01-14T17:03:26.817Z,4.50
2019-01-14T17:05:57.421Z,4.49
2019-01-14T17:08:28.063Z,4.51
2019-01-14T17:10:58.661Z,4.52
2019-01-14T17:13:32.159Z,4.53
2019-01-14T17:16:02.752Z,4.58
2019-01-14T17:18:33.295Z,4.61
2019-01-14T17:21:03.887Z,4.62
2019-01-14T17:23:34.577Z,4.62
2019-01-14T17:26:05.083Z,4.63
2019-01-14T17:28:35.665Z,4.64
2019-01-14T17:31:07.892Z,4.63
2019-01-14T17:33:38.457Z,4.63
2019-01-14T17:36:09.039Z,4.60
2019-01-14T17:38:39.594Z,4.64
2019-01-14T17:41:10.178Z,4.65
2019-01-14T17:43:44.040Z,4.67
2019-01-14T17:46:16.072Z,4.63
2019-01-14T17:48:46.644Z,4.65
2019-01-14T17:51:17.182Z,4.64
2019-01-14T17:53:47.743Z,4.61
2019-01-14T17:56:18.297Z,4.61
2019-01-14T17:58:48.953Z,4.61
2019-01-14T18:01:19.497Z,4.62
2019-01-14T18:03:51.375Z,4.54
2019-01-14T18:06:21.885Z,4.60
2019-01-14T18:08:52.427Z,4.58
2019-01-14T18:11:23.056Z,4.57
2019-01-14T18:13:53.616Z,4.58
2019-01-14T18:16:24.236Z,4.62
2019-01-14T18:18:54.733Z,4.60
2019-01-14T18:21:25.542Z,4.63
2019-01-14T18:23:56.276Z,4.63
2019-01-14T18:26:27.069Z,4.62
2019-01-14T18:28:57.708Z,4.62
2019-01-14T18:31:29.829Z,4.58
2019-01-14T18:34:00.544Z,4.61
2019-01-14T18:36:31.137Z,4.65
2019-01-14T18:39:01.672Z,4.64
2019-01-14T18:41:38.445Z,4.62
2019-01-14T18:44:08.968Z,4.62
2019-01-14T18:46:39.571Z,4.58
2019-01-14T18:49:10.275Z,4.60
2019-01-14T18:51:40.899Z,4.61
2019-01-14T18:54:12.066Z,4.58
2019-01-14T18:56:42.782Z,4.60
2019-01-14T18:59:13.319Z,4.61
2019-01-14T19:01:43.919Z,4.58
2019-01-14T19:04:15.030Z,4.60
2019-01-14T19:06:45.556Z,4.61
2019-01-14T19:09:16.092Z,4.58
2019-01-14T19:11:49.784Z,4.61
2019-01-14T19:14:20.338Z,4.61
2019-01-14T19:16:50.968Z,4.61
2019-01-14T19:19:21.438Z,4.61
2019-01-14T19:21:52.723Z,4.62
2019-01-14T19:28:16.860Z,4.62
2019-01-14T19:34:09.330Z,4.52
2019-01-14T19:40:35.851Z,4.42
2019-01-14T19:46:28.650Z,4.29
2019-01-14T19:52:55.483Z,4.24
2019-01-14T19:59:21.303Z,4.13
2019-01-14T20:05:48.935Z,4.11
2019-01-14T20:12:27.895Z,4.08
2019-01-14T20:18:54.564Z,4.10
2019-01-14T20:25:20.740Z,4.13
2019-01-14T20:32:03.798Z,4.14
2019-01-14T20:38:29.319Z,4.16
2019-01-14T20:48:45.650Z,4.04
2019-01-14T20:55:11.216Z,4.04
2019-01-14T21:01:35.018Z,4.04
2019-01-14T21:08:13.979Z,4.06
2019-01-14T21:14:40.123Z,4.01
2019-01-14T21:17:54.391Z,4.01
2019-01-14T21:24:10.408Z,4.04
2019-01-14T21:30:38.304Z,4.07
2019-01-14T21:37:04.158Z,4.11
2019-01-14T21:43:41.064Z,4.12
2019-01-14T21:50:10.129Z,4.07
2019-01-14T21:56:39.991Z,4.11
2019-01-14T22:03:18.692Z,4.09
2019-01-14T22:09:44.536Z,4.09
2019-01-14T22:16:15.301Z,4.08
2019-01-14T22:22:09.127Z,4.01
2019-01-14T22:28:45.701Z,3.96
2019-01-14T22:35:10.734Z,3.95
2019-01-14T22:41:35.677Z,3.95
2019-01-14T22:48:14.627Z,4.01
2019-01-14T22:54:38.424Z,4.05
2019-01-14T23:01:47.678Z,3.98
2019-01-14T23:08:26.629Z,4.00
2019-01-14T23:14:39.078Z,4.03
2019-01-14T23:21:04.928Z,4.00
2019-01-14T23:27:18.491Z,4.04
2019-01-14T23:33:58.704Z,4.06
2019-01-14T23:40:25.626Z,4.02
2019-01-14T23:46:51.448Z,4.08
2019-01-14T23:53:17.044Z,4.05
2019-01-14T23:59:56.002Z,4.03
